sensor_id;sensor_type;location;lat;lon;timestamp;temperature;humidity
20246;DHT22;10281;54.406;18.556;2022-10-18T00:02:13;17.40;99.90
20246;DHT22;10281;54.406;18.556;2022-10-18T00:04:40;17.50;99.90
20246;DHT22;10281;54.406;18.556;2022-10-18T00:07:06;17.50;99.90
20246;DHT22;10281;54.406;18.556;2022-10-18T00:09:33;17.60;99.90
20246;DHT22;10281;54.406;18.556;2022-10-18T00:12:00;17.70;99.90
20246;DHT22;10281;54.406;18.556;2022-10-18T00:14:26;17.70;99.90
20246;DHT22;10281;54.406;18.556;2022-10-18T00:16:53;17.70;99.90
20246;DHT22;10281;54.406;18.556;2022-10-18T00:19:20;17.60;99.90
20246;DHT22;10281;54.406;18.556;2022-10-18T00:21:49;17.70;99.90
20246;DHT22;10281;54.406;18.556;2022-10-18T00:24:16;17.70;99.90
20246;DHT22;10281;54.406;18.556;2022-10-18T00:26:42;17.70;99.90
20246;DHT22;10281;54.406;18.556;2022-10-18T00:29:12;17.70;99.90
20246;DHT22;10281;54.406;18.556;2022-10-18T00:31:40;17.70;99.90
20246;DHT22;10281;54.406;18.556;2022-10-18T00:34:12;17.70;99.90
20246;DHT22;10281;54.406;18.556;2022-10-18T00:36:40;17.70;99.90
20246;DHT22;10281;54.406;18.556;2022-10-18T00:39:08;17.70;99.90
20246;DHT22;10281;54.406;18.556;2022-10-18T00:41:37;17.60;99.90
20246;DHT22;10281;54.406;18.556;2022-10-18T00:44:56;17.60;99.90
20246;DHT22;10281;54.406;18.556;2022-10-18T00:46:36;17.60;99.90
20246;DHT22;10281;54.406;18.556;2022-10-18T00:51:45;17.50;99.90
20246;DHT22;10281;54.406;18.556;2022-10-18T00:54:13;17.50;99.90
20246;DHT22;10281;54.406;18.556;2022-10-18T00:56:40;17.40;99.90
20246;DHT22;10281;54.406;18.556;2022-10-18T00:59:10;17.40;99.90
20246;DHT22;10281;54.406;18.556;2022-10-18T01:01:37;17.40;99.90
20246;DHT22;10281;54.406;18.556;2022-10-18T01:04:03;17.40;99.90
20246;DHT22;10281;54.406;18.556;2022-10-18T01:06:30;17.40;99.90
20246;DHT22;10281;54.406;18.556;2022-10-18T01:09:20;17.40;99.90
20246;DHT22;10281;54.406;18.556;2022-10-18T01:12:09;17.30;99.90
20246;DHT22;10281;54.406;18.556;2022-10-18T01:17:34;17.30;99.90
20246;DHT22;10281;54.406;18.556;2022-10-18T01:22:59;17.20;99.90
20246;DHT22;10281;54.406;18.556;2022-10-18T01:25:37;17.20;99.90
20246;DHT22;10281;54.406;18.556;2022-10-18T01:28:14;17.20;99.90
20246;DHT22;10281;54.406;18.556;2022-10-18T01:30:47;17.10;99.90
20246;DHT22;10281;54.406;18.556;2022-10-18T01:33:34;17.10;99.90
20246;DHT22;10281;54.406;18.556;2022-10-18T01:36:10;17.10;99.90
20246;DHT22;10281;54.406;18.556;2022-10-18T01:38:35;17.10;99.90
20246;DHT22;10281;54.406;18.556;2022-10-18T01:41:04;17.10;99.90
20246;DHT22;10281;54.406;18.556;2022-10-18T01:43:33;17.10;99.90
20246;DHT22;10281;54.406;18.556;2022-10-18T01:46:01;17.10;99.90
20246;DHT22;10281;54.406;18.556;2022-10-18T01:48:30;17.10;99.90
20246;DHT22;10281;54.406;18.556;2022-10-18T01:50:57;17.00;99.90
20246;DHT22;10281;54.406;18.556;2022-10-18T01:53:27;16.90;99.90
20246;DHT22;10281;54.406;18.556;2022-10-18T01:56:04;16.90;99.90
20246;DHT22;10281;54.406;18.556;2022-10-18T01:58:36;16.80;99.90
20246;DHT22;10281;54.406;18.556;2022-10-18T02:01:10;16.80;99.90
20246;DHT22;10281;54.406;18.556;2022-10-18T02:03:41;16.70;99.90
20246;DHT22;10281;54.406;18.556;2022-10-18T02:06:18;16.70;99.90
20246;DHT22;10281;54.406;18.556;2022-10-18T02:08:49;16.70;99.90
20246;DHT22;10281;54.406;18.556;2022-10-18T02:11:16;16.70;99.90
20246;DHT22;10281;54.406;18.556;2022-10-18T02:13:54;16.60;99.90
20246;DHT22;10281;54.406;18.556;2022-10-18T02:16:27;16.60;99.90
20246;DHT22;10281;54.406;18.556;2022-10-18T02:18:58;16.60;99.90
20246;DHT22;10281;54.406;18.556;2022-10-18T02:21:27;16.60;99.90
20246;DHT22;10281;54.406;18.556;2022-10-18T02:23:57;16.60;99.90
20246;DHT22;10281;54.406;18.556;2022-10-18T02:26:24;16.50;99.90
20246;DHT22;10281;54.406;18.556;2022-10-18T02:28:51;16.50;99.90
20246;DHT22;10281;54.406;18.556;2022-10-18T02:31:38;16.50;99.90
20246;DHT22;10281;54.406;18.556;2022-10-18T02:34:15;16.50;99.90
20246;DHT22;10281;54.406;18.556;2022-10-18T02:39:20;16.40;99.90
20246;DHT22;10281;54.406;18.556;2022-10-18T02:41:46;16.40;99.90
20246;DHT22;10281;54.406;18.556;2022-10-18T02:44:13;16.40;99.90
20246;DHT22;10281;54.406;18.556;2022-10-18T02:46:40;16.40;99.90
20246;DHT22;10281;54.406;18.556;2022-10-18T02:49:07;16.40;99.90
20246;DHT22;10281;54.406;18.556;2022-10-18T02:51:34;16.30;99.90
20246;DHT22;10281;54.406;18.556;2022-10-18T02:54:00;16.40;99.90
20246;DHT22;10281;54.406;18.556;2022-10-18T02:56:27;16.40;99.90
20246;DHT22;10281;54.406;18.556;2022-10-18T02:58:53;16.40;99.90
20246;DHT22;10281;54.406;18.556;2022-10-18T03:01:20;16.40;99.90
20246;DHT22;10281;54.406;18.556;2022-10-18T03:03:47;16.40;99.90
20246;DHT22;10281;54.406;18.556;2022-10-18T03:06:13;16.30;99.90
20246;DHT22;10281;54.406;18.556;2022-10-18T03:08:40;16.30;99.90
20246;DHT22;10281;54.406;18.556;2022-10-18T03:11:07;16.30;99.90
20246;DHT22;10281;54.406;18.556;2022-10-18T03:13:33;16.20;99.90
20246;DHT22;10281;54.406;18.556;2022-10-18T03:16:00;16.20;99.90
20246;DHT22;10281;54.406;18.556;2022-10-18T03:18:27;16.20;99.90
20246;DHT22;10281;54.406;18.556;2022-10-18T03:20:53;16.20;99.90
20246;DHT22;10281;54.406;18.556;2022-10-18T03:23:20;16.20;99.90
20246;DHT22;10281;54.406;18.556;2022-10-18T03:25:47;16.20;99.90
20246;DHT22;10281;54.406;18.556;2022-10-18T03:28:13;16.20;99.90
20246;DHT22;10281;54.406;18.556;2022-10-18T03:30:40;16.20;99.90
20246;DHT22;10281;54.406;18.556;2022-10-18T03:33:06;16.20;99.90
20246;DHT22;10281;54.406;18.556;2022-10-18T03:35:33;16.10;99.90
20246;DHT22;10281;54.406;18.556;2022-10-18T03:38:00;16.10;99.90
20246;DHT22;10281;54.406;18.556;2022-10-18T03:40:26;16.20;99.90
20246;DHT22;10281;54.406;18.556;2022-10-18T03:42:53;16.10;99.90
20246;DHT22;10281;54.406;18.556;2022-10-18T03:45:19;16.10;99.90
20246;DHT22;10281;54.406;18.556;2022-10-18T03:47:46;16.10;99.90
20246;DHT22;10281;54.406;18.556;2022-10-18T03:50:12;16.10;99.90
20246;DHT22;10281;54.406;18.556;2022-10-18T03:52:39;16.10;99.90
20246;DHT22;10281;54.406;18.556;2022-10-18T03:55:06;16.10;99.90
20246;DHT22;10281;54.406;18.556;2022-10-18T03:57:33;16.10;99.90
20246;DHT22;10281;54.406;18.556;2022-10-18T03:59:59;16.10;99.90
20246;DHT22;10281;54.406;18.556;2022-10-18T04:02:26;16.10;99.90
20246;DHT22;10281;54.406;18.556;2022-10-18T04:04:53;16.10;99.90
20246;DHT22;10281;54.406;18.556;2022-10-18T04:07:19;16.00;99.90
20246;DHT22;10281;54.406;18.556;2022-10-18T04:09:46;16.00;99.90
20246;DHT22;10281;54.406;18.556;2022-10-18T04:12:12;16.00;99.90
20246;DHT22;10281;54.406;18.556;2022-10-18T04:14:39;16.00;99.90
20246;DHT22;10281;54.406;18.556;2022-10-18T04:17:06;16.00;99.90
20246;DHT22;10281;54.406;18.556;2022-10-18T04:19:32;16.00;99.90
20246;DHT22;10281;54.406;18.556;2022-10-18T04:21:59;16.00;99.90
20246;DHT22;10281;54.406;18.556;2022-10-18T04:24:25;16.00;99.90
20246;DHT22;10281;54.406;18.556;2022-10-18T04:26:52;16.00;99.90
20246;DHT22;10281;54.406;18.556;2022-10-18T04:29:19;15.90;99.90
20246;DHT22;10281;54.406;18.556;2022-10-18T04:31:45;15.90;99.90
20246;DHT22;10281;54.406;18.556;2022-10-18T04:34:12;15.90;99.90
20246;DHT22;10281;54.406;18.556;2022-10-18T04:36:38;15.90;99.90
20246;DHT22;10281;54.406;18.556;2022-10-18T04:39:05;15.90;99.90
20246;DHT22;10281;54.406;18.556;2022-10-18T04:41:31;15.90;99.90
20246;DHT22;10281;54.406;18.556;2022-10-18T04:43:58;15.80;99.90
20246;DHT22;10281;54.406;18.556;2022-10-18T04:46:25;15.80;99.90
20246;DHT22;10281;54.406;18.556;2022-10-18T04:48:51;15.80;99.90
20246;DHT22;10281;54.406;18.556;2022-10-18T04:51:18;15.80;99.90
20246;DHT22;10281;54.406;18.556;2022-10-18T04:53:44;15.70;99.90
20246;DHT22;10281;54.406;18.556;2022-10-18T04:56:11;15.70;99.90
20246;DHT22;10281;54.406;18.556;2022-10-18T04:58:38;15.80;99.90
20246;DHT22;10281;54.406;18.556;2022-10-18T05:01:06;15.80;99.90
20246;DHT22;10281;54.406;18.556;2022-10-18T05:03:33;15.80;99.90
20246;DHT22;10281;54.406;18.556;2022-10-18T05:06:01;15.70;99.90
20246;DHT22;10281;54.406;18.556;2022-10-18T05:08:33;15.70;99.90
20246;DHT22;10281;54.406;18.556;2022-10-18T05:11:00;15.80;99.90
20246;DHT22;10281;54.406;18.556;2022-10-18T05:13:28;15.70;99.90
20246;DHT22;10281;54.406;18.556;2022-10-18T05:15:56;15.70;99.90
20246;DHT22;10281;54.406;18.556;2022-10-18T05:18:25;15.70;99.90
20246;DHT22;10281;54.406;18.556;2022-10-18T05:20:52;15.70;99.90
20246;DHT22;10281;54.406;18.556;2022-10-18T05:23:19;15.70;99.90
20246;DHT22;10281;54.406;18.556;2022-10-18T05:25:45;15.70;99.90
20246;DHT22;10281;54.406;18.556;2022-10-18T05:28:12;15.70;99.90
20246;DHT22;10281;54.406;18.556;2022-10-18T05:30:39;15.70;99.90
20246;DHT22;10281;54.406;18.556;2022-10-18T05:33:07;15.70;99.90
20246;DHT22;10281;54.406;18.556;2022-10-18T05:35:34;15.70;99.90
20246;DHT22;10281;54.406;18.556;2022-10-18T05:38:03;15.70;99.90
20246;DHT22;10281;54.406;18.556;2022-10-18T05:40:36;15.80;99.90
20246;DHT22;10281;54.406;18.556;2022-10-18T05:43:03;15.80;99.90
20246;DHT22;10281;54.406;18.556;2022-10-18T05:45:30;15.70;99.90
20246;DHT22;10281;54.406;18.556;2022-10-18T05:47:57;15.70;99.90
20246;DHT22;10281;54.406;18.556;2022-10-18T05:50:23;15.80;99.90
20246;DHT22;10281;54.406;18.556;2022-10-18T05:52:50;15.80;99.90
20246;DHT22;10281;54.406;18.556;2022-10-18T05:55:16;15.80;99.90
20246;DHT22;10281;54.406;18.556;2022-10-18T05:57:48;15.80;99.90
20246;DHT22;10281;54.406;18.556;2022-10-18T06:00:14;15.70;99.90
20246;DHT22;10281;54.406;18.556;2022-10-18T06:02:40;15.80;99.90
20246;DHT22;10281;54.406;18.556;2022-10-18T06:05:07;15.80;99.90
20246;DHT22;10281;54.406;18.556;2022-10-18T06:07:34;15.80;99.90
20246;DHT22;10281;54.406;18.556;2022-10-18T06:10:00;15.80;99.90
20246;DHT22;10281;54.406;18.556;2022-10-18T06:12:27;15.70;99.90
20246;DHT22;10281;54.406;18.556;2022-10-18T06:14:53;15.70;99.90
20246;DHT22;10281;54.406;18.556;2022-10-18T06:17:20;15.70;99.90
20246;DHT22;10281;54.406;18.556;2022-10-18T06:19:47;15.80;99.90
20246;DHT22;10281;54.406;18.556;2022-10-18T06:22:13;15.80;99.90
20246;DHT22;10281;54.406;18.556;2022-10-18T06:24:40;15.80;99.90
20246;DHT22;10281;54.406;18.556;2022-10-18T06:27:07;15.70;99.90
20246;DHT22;10281;54.406;18.556;2022-10-18T06:29:35;15.80;99.90
20246;DHT22;10281;54.406;18.556;2022-10-18T06:32:03;15.80;99.90
20246;DHT22;10281;54.406;18.556;2022-10-18T06:34:30;15.80;99.90
20246;DHT22;10281;54.406;18.556;2022-10-18T06:36:56;15.80;99.90
20246;DHT22;10281;54.406;18.556;2022-10-18T06:39:23;15.90;99.90
20246;DHT22;10281;54.406;18.556;2022-10-18T06:41:50;16.00;99.90
20246;DHT22;10281;54.406;18.556;2022-10-18T06:44:16;16.00;99.90
20246;DHT22;10281;54.406;18.556;2022-10-18T06:46:44;16.00;99.90
20246;DHT22;10281;54.406;18.556;2022-10-18T06:49:12;16.00;99.90
20246;DHT22;10281;54.406;18.556;2022-10-18T06:51:40;16.00;99.90
20246;DHT22;10281;54.406;18.556;2022-10-18T06:54:07;16.00;99.90
20246;DHT22;10281;54.406;18.556;2022-10-18T06:56:34;16.00;99.90
20246;DHT22;10281;54.406;18.556;2022-10-18T06:59:01;16.00;99.90
20246;DHT22;10281;54.406;18.556;2022-10-18T07:01:28;16.00;99.90
20246;DHT22;10281;54.406;18.556;2022-10-18T07:03:54;16.00;99.90
20246;DHT22;10281;54.406;18.556;2022-10-18T07:06:23;16.00;99.90
20246;DHT22;10281;54.406;18.556;2022-10-18T07:08:50;15.90;99.90
20246;DHT22;10281;54.406;18.556;2022-10-18T07:11:21;16.00;99.90
20246;DHT22;10281;54.406;18.556;2022-10-18T07:13:50;16.00;99.90
20246;DHT22;10281;54.406;18.556;2022-10-18T07:16:19;16.10;99.90
20246;DHT22;10281;54.406;18.556;2022-10-18T07:18:47;16.10;99.90
20246;DHT22;10281;54.406;18.556;2022-10-18T07:21:17;16.10;99.90
20246;DHT22;10281;54.406;18.556;2022-10-18T07:23:45;16.10;99.90
20246;DHT22;10281;54.406;18.556;2022-10-18T07:26:15;16.20;99.90
20246;DHT22;10281;54.406;18.556;2022-10-18T07:28:43;16.20;99.90
20246;DHT22;10281;54.406;18.556;2022-10-18T07:31:11;16.20;99.90
20246;DHT22;10281;54.406;18.556;2022-10-18T07:33:38;16.30;99.90
20246;DHT22;10281;54.406;18.556;2022-10-18T07:36:06;16.30;99.90
20246;DHT22;10281;54.406;18.556;2022-10-18T07:38:34;16.30;99.90
20246;DHT22;10281;54.406;18.556;2022-10-18T07:41:02;16.40;99.90
20246;DHT22;10281;54.406;18.556;2022-10-18T07:43:31;16.30;99.90
20246;DHT22;10281;54.406;18.556;2022-10-18T07:46:01;16.30;99.90
20246;DHT22;10281;54.406;18.556;2022-10-18T07:48:28;16.30;99.90
20246;DHT22;10281;54.406;18.556;2022-10-18T07:50:57;16.30;99.90
20246;DHT22;10281;54.406;18.556;2022-10-18T07:53:24;16.30;99.90
20246;DHT22;10281;54.406;18.556;2022-10-18T07:55:51;16.40;99.90
20246;DHT22;10281;54.406;18.556;2022-10-18T07:58:18;16.40;99.90
20246;DHT22;10281;54.406;18.556;2022-10-18T08:00:44;16.40;99.90
20246;DHT22;10281;54.406;18.556;2022-10-18T08:03:11;16.40;99.90
20246;DHT22;10281;54.406;18.556;2022-10-18T08:05:37;16.40;99.90
20246;DHT22;10281;54.406;18.556;2022-10-18T08:08:04;16.40;99.90
20246;DHT22;10281;54.406;18.556;2022-10-18T08:10:31;16.40;99.90
20246;DHT22;10281;54.406;18.556;2022-10-18T08:12:59;16.40;99.90
20246;DHT22;10281;54.406;18.556;2022-10-18T08:15:26;16.40;99.90
20246;DHT22;10281;54.406;18.556;2022-10-18T08:17:52;16.30;99.90
20246;DHT22;10281;54.406;18.556;2022-10-18T08:20:19;16.30;99.90
20246;DHT22;10281;54.406;18.556;2022-10-18T08:22:49;16.30;99.90
20246;DHT22;10281;54.406;18.556;2022-10-18T08:25:16;16.30;99.90
20246;DHT22;10281;54.406;18.556;2022-10-18T08:27:43;16.30;99.90
20246;DHT22;10281;54.406;18.556;2022-10-18T08:30:10;16.40;99.90
20246;DHT22;10281;54.406;18.556;2022-10-18T08:32:36;16.40;99.90
20246;DHT22;10281;54.406;18.556;2022-10-18T08:35:03;16.40;99.90
20246;DHT22;10281;54.406;18.556;2022-10-18T08:37:30;16.40;99.90
20246;DHT22;10281;54.406;18.556;2022-10-18T08:39:56;16.50;99.90
20246;DHT22;10281;54.406;18.556;2022-10-18T08:42:34;16.50;99.90
20246;DHT22;10281;54.406;18.556;2022-10-18T08:44:59;16.40;99.90
20246;DHT22;10281;54.406;18.556;2022-10-18T08:47:42;16.40;99.90
20246;DHT22;10281;54.406;18.556;2022-10-18T08:50:14;16.40;99.90
20246;DHT22;10281;54.406;18.556;2022-10-18T08:53:36;16.30;99.90
20246;DHT22;10281;54.406;18.556;2022-10-18T08:55:48;16.30;99.90
20246;DHT22;10281;54.406;18.556;2022-10-18T08:58:22;16.40;99.90
20246;DHT22;10281;54.406;18.556;2022-10-18T09:03:32;16.50;99.90
20246;DHT22;10281;54.406;18.556;2022-10-18T09:06:25;16.50;99.90
20246;DHT22;10281;54.406;18.556;2022-10-18T09:09:01;16.50;99.90
20246;DHT22;10281;54.406;18.556;2022-10-18T09:17:38;16.70;99.90
20246;DHT22;10281;54.406;18.556;2022-10-18T09:19:58;16.70;99.90
20246;DHT22;10281;54.406;18.556;2022-10-18T09:25:18;16.70;99.90
20246;DHT22;10281;54.406;18.556;2022-10-18T09:27:54;16.80;99.90
20246;DHT22;10281;54.406;18.556;2022-10-18T09:30:30;16.80;99.90
20246;DHT22;10281;54.406;18.556;2022-10-18T09:33:02;16.80;99.90
20246;DHT22;10281;54.406;18.556;2022-10-18T09:35:37;16.90;99.90
20246;DHT22;10281;54.406;18.556;2022-10-18T09:38:04;16.90;99.90
20246;DHT22;10281;54.406;18.556;2022-10-18T09:40:34;16.90;99.90
20246;DHT22;10281;54.406;18.556;2022-10-18T09:43:11;17.00;99.90
20246;DHT22;10281;54.406;18.556;2022-10-18T09:45:42;17.00;99.90
20246;DHT22;10281;54.406;18.556;2022-10-18T09:48:26;17.10;99.90
20246;DHT22;10281;54.406;18.556;2022-10-18T09:50:56;17.10;99.90
20246;DHT22;10281;54.406;18.556;2022-10-18T09:53:32;17.20;99.90
20246;DHT22;10281;54.406;18.556;2022-10-18T09:56:05;17.20;99.90
20246;DHT22;10281;54.406;18.556;2022-10-18T09:58:43;17.10;99.90
20246;DHT22;10281;54.406;18.556;2022-10-18T10:01:14;17.10;99.90
20246;DHT22;10281;54.406;18.556;2022-10-18T10:03:42;17.10;99.90
20246;DHT22;10281;54.406;18.556;2022-10-18T10:06:16;17.00;99.90
20246;DHT22;10281;54.406;18.556;2022-10-18T10:08:47;17.00;99.90
20246;DHT22;10281;54.406;18.556;2022-10-18T10:11:25;16.90;99.90
20246;DHT22;10281;54.406;18.556;2022-10-18T10:13:56;16.90;99.90
20246;DHT22;10281;54.406;18.556;2022-10-18T10:16:24;16.90;99.90
20246;DHT22;10281;54.406;18.556;2022-10-18T10:18:53;16.90;99.90
20246;DHT22;10281;54.406;18.556;2022-10-18T10:21:21;16.80;99.90
20246;DHT22;10281;54.406;18.556;2022-10-18T10:23:52;16.80;99.90
20246;DHT22;10281;54.406;18.556;2022-10-18T10:26:23;16.80;99.90
20246;DHT22;10281;54.406;18.556;2022-10-18T10:28:51;16.80;99.90
20246;DHT22;10281;54.406;18.556;2022-10-18T10:31:28;16.80;99.90
20246;DHT22;10281;54.406;18.556;2022-10-18T10:34:01;16.90;99.90
20246;DHT22;10281;54.406;18.556;2022-10-18T10:36:28;17.00;99.90
20246;DHT22;10281;54.406;18.556;2022-10-18T10:39:09;17.00;99.90
20246;DHT22;10281;54.406;18.556;2022-10-18T10:41:34;17.00;99.90
20246;DHT22;10281;54.406;18.556;2022-10-18T10:44:03;17.00;99.90
20246;DHT22;10281;54.406;18.556;2022-10-18T10:46:34;17.00;99.90
20246;DHT22;10281;54.406;18.556;2022-10-18T10:49:02;16.90;99.90
20246;DHT22;10281;54.406;18.556;2022-10-18T10:51:31;17.00;99.90
20246;DHT22;10281;54.406;18.556;2022-10-18T10:54:00;16.90;99.90
20246;DHT22;10281;54.406;18.556;2022-10-18T10:56:31;17.00;99.90
20246;DHT22;10281;54.406;18.556;2022-10-18T10:59:06;17.00;99.90
20246;DHT22;10281;54.406;18.556;2022-10-18T11:01:33;17.00;99.90
20246;DHT22;10281;54.406;18.556;2022-10-18T11:04:36;17.10;99.90
20246;DHT22;10281;54.406;18.556;2022-10-18T11:06:55;17.10;99.90
20246;DHT22;10281;54.406;18.556;2022-10-18T11:12:04;17.10;99.90
20246;DHT22;10281;54.406;18.556;2022-10-18T11:14:35;17.10;99.90
20246;DHT22;10281;54.406;18.556;2022-10-18T11:17:27;17.10;99.90
20246;DHT22;10281;54.406;18.556;2022-10-18T11:20:08;17.10;99.90
20246;DHT22;10281;54.406;18.556;2022-10-18T11:22:34;17.20;99.90
20246;DHT22;10281;54.406;18.556;2022-10-18T11:25:03;17.20;99.90
20246;DHT22;10281;54.406;18.556;2022-10-18T11:27:40;17.20;99.90
20246;DHT22;10281;54.406;18.556;2022-10-18T11:30:17;17.10;99.90
20246;DHT22;10281;54.406;18.556;2022-10-18T11:32:58;17.20;99.90
20246;DHT22;10281;54.406;18.556;2022-10-18T11:35:37;17.10;99.90
20246;DHT22;10281;54.406;18.556;2022-10-18T11:41:04;17.00;99.90
20246;DHT22;10281;54.406;18.556;2022-10-18T11:43:37;16.90;99.90
20246;DHT22;10281;54.406;18.556;2022-10-18T11:46:11;16.90;99.90
20246;DHT22;10281;54.406;18.556;2022-10-18T11:51:58;16.80;99.90
20246;DHT22;10281;54.406;18.556;2022-10-18T11:54:29;16.80;99.90
20246;DHT22;10281;54.406;18.556;2022-10-18T11:57:15;16.80;99.90
20246;DHT22;10281;54.406;18.556;2022-10-18T11:59:50;16.80;99.90
20246;DHT22;10281;54.406;18.556;2022-10-18T12:04:57;16.60;99.90
20246;DHT22;10281;54.406;18.556;2022-10-18T12:07:25;16.60;99.90
20246;DHT22;10281;54.406;18.556;2022-10-18T12:09:54;16.50;99.90
20246;DHT22;10281;54.406;18.556;2022-10-18T12:12:29;16.50;99.90
20246;DHT22;10281;54.406;18.556;2022-10-18T12:15:00;16.40;99.90
20246;DHT22;10281;54.406;18.556;2022-10-18T12:17:34;16.40;99.90
20246;DHT22;10281;54.406;18.556;2022-10-18T12:20:09;16.40;99.90
20246;DHT22;10281;54.406;18.556;2022-10-18T12:22:37;16.40;99.90
20246;DHT22;10281;54.406;18.556;2022-10-18T12:25:11;16.30;99.90
20246;DHT22;10281;54.406;18.556;2022-10-18T12:27:45;16.30;99.90
20246;DHT22;10281;54.406;18.556;2022-10-18T12:30:19;16.30;99.90
20246;DHT22;10281;54.406;18.556;2022-10-18T12:32:46;16.30;99.90
20246;DHT22;10281;54.406;18.556;2022-10-18T12:35:15;16.30;99.90
20246;DHT22;10281;54.406;18.556;2022-10-18T12:37:53;16.30;99.90
20246;DHT22;10281;54.406;18.556;2022-10-18T12:40:32;16.30;99.90
20246;DHT22;10281;54.406;18.556;2022-10-18T12:43:05;16.30;99.90
20246;DHT22;10281;54.406;18.556;2022-10-18T12:45:31;16.20;99.90
20246;DHT22;10281;54.406;18.556;2022-10-18T12:48:04;16.20;99.90
20246;DHT22;10281;54.406;18.556;2022-10-18T12:50:34;16.10;99.90
20246;DHT22;10281;54.406;18.556;2022-10-18T12:55:50;16.10;99.90
20246;DHT22;10281;54.406;18.556;2022-10-18T12:58:25;16.10;99.90
20246;DHT22;10281;54.406;18.556;2022-10-18T13:00:54;16.10;99.90
20246;DHT22;10281;54.406;18.556;2022-10-18T13:06:01;16.00;99.90
20246;DHT22;10281;54.406;18.556;2022-10-18T13:08:38;16.00;99.90
20246;DHT22;10281;54.406;18.556;2022-10-18T13:11:25;16.00;99.90
20246;DHT22;10281;54.406;18.556;2022-10-18T13:14:03;16.00;99.90
20246;DHT22;10281;54.406;18.556;2022-10-18T13:16:47;16.00;99.90
20246;DHT22;10281;54.406;18.556;2022-10-18T13:19:21;16.00;99.90
20246;DHT22;10281;54.406;18.556;2022-10-18T13:21:55;16.00;99.90
20246;DHT22;10281;54.406;18.556;2022-10-18T13:24:28;15.90;99.90
20246;DHT22;10281;54.406;18.556;2022-10-18T13:27:03;15.90;99.90
20246;DHT22;10281;54.406;18.556;2022-10-18T13:29:39;15.90;99.90
20246;DHT22;10281;54.406;18.556;2022-10-18T13:32:16;15.90;99.90
20246;DHT22;10281;54.406;18.556;2022-10-18T13:34:41;15.90;99.90
20246;DHT22;10281;54.406;18.556;2022-10-18T13:37:23;15.90;99.90
20246;DHT22;10281;54.406;18.556;2022-10-18T13:40:12;15.90;99.90
20246;DHT22;10281;54.406;18.556;2022-10-18T13:42:28;15.90;99.90
20246;DHT22;10281;54.406;18.556;2022-10-18T13:47:40;15.90;99.90
20246;DHT22;10281;54.406;18.556;2022-10-18T13:50:15;15.90;99.90
20246;DHT22;10281;54.406;18.556;2022-10-18T13:55:56;15.70;99.90
20246;DHT22;10281;54.406;18.556;2022-10-18T13:58:35;15.70;99.90
20246;DHT22;10281;54.406;18.556;2022-10-18T14:01:25;15.70;99.90
20246;DHT22;10281;54.406;18.556;2022-10-18T14:06:42;15.60;99.90
20246;DHT22;10281;54.406;18.556;2022-10-18T14:09:20;15.60;99.90
20246;DHT22;10281;54.406;18.556;2022-10-18T14:11:54;15.50;99.90
20246;DHT22;10281;54.406;18.556;2022-10-18T14:14:32;15.40;99.90
20246;DHT22;10281;54.406;18.556;2022-10-18T14:17:13;15.40;99.90
20246;DHT22;10281;54.406;18.556;2022-10-18T14:19:41;15.40;99.90
20246;DHT22;10281;54.406;18.556;2022-10-18T14:22:14;15.40;99.90
20246;DHT22;10281;54.406;18.556;2022-10-18T14:24:43;15.40;99.90
20246;DHT22;10281;54.406;18.556;2022-10-18T14:27:21;15.40;99.90
20246;DHT22;10281;54.406;18.556;2022-10-18T14:29:49;15.40;99.90
20246;DHT22;10281;54.406;18.556;2022-10-18T14:32:33;15.40;99.90
20246;DHT22;10281;54.406;18.556;2022-10-18T14:34:59;15.30;99.90
20246;DHT22;10281;54.406;18.556;2022-10-18T14:37:30;15.20;99.90
20246;DHT22;10281;54.406;18.556;2022-10-18T14:39:57;15.20;99.90
20246;DHT22;10281;54.406;18.556;2022-10-18T14:42:26;15.20;99.90
20246;DHT22;10281;54.406;18.556;2022-10-18T14:44:53;15.20;99.90
20246;DHT22;10281;54.406;18.556;2022-10-18T14:47:23;15.10;99.90
20246;DHT22;10281;54.406;18.556;2022-10-18T14:49:51;15.10;99.90
20246;DHT22;10281;54.406;18.556;2022-10-18T14:52:26;15.00;99.90
20246;DHT22;10281;54.406;18.556;2022-10-18T14:54:54;15.00;99.90
20246;DHT22;10281;54.406;18.556;2022-10-18T14:57:27;15.00;99.90
20246;DHT22;10281;54.406;18.556;2022-10-18T14:59:58;14.90;99.90
20246;DHT22;10281;54.406;18.556;2022-10-18T15:02:28;14.90;99.90
20246;DHT22;10281;54.406;18.556;2022-10-18T15:04:58;14.90;99.90
20246;DHT22;10281;54.406;18.556;2022-10-18T15:07:25;14.80;99.90
20246;DHT22;10281;54.406;18.556;2022-10-18T15:09:58;14.80;99.90
20246;DHT22;10281;54.406;18.556;2022-10-18T15:12:27;14.80;99.90
20246;DHT22;10281;54.406;18.556;2022-10-18T15:14:54;14.70;99.90
20246;DHT22;10281;54.406;18.556;2022-10-18T15:17:26;14.70;99.90
20246;DHT22;10281;54.406;18.556;2022-10-18T15:19:59;14.70;99.90
20246;DHT22;10281;54.406;18.556;2022-10-18T15:22:29;14.60;99.90
20246;DHT22;10281;54.406;18.556;2022-10-18T15:25:09;14.50;99.90
20246;DHT22;10281;54.406;18.556;2022-10-18T15:27:35;14.50;99.90
20246;DHT22;10281;54.406;18.556;2022-10-18T15:30:08;14.50;99.90
20246;DHT22;10281;54.406;18.556;2022-10-18T15:32:36;14.50;99.90
20246;DHT22;10281;54.406;18.556;2022-10-18T15:35:11;14.40;99.90
20246;DHT22;10281;54.406;18.556;2022-10-18T15:37:41;14.30;99.90
20246;DHT22;10281;54.406;18.556;2022-10-18T15:40:24;14.30;99.90
20246;DHT22;10281;54.406;18.556;2022-10-18T15:42:47;14.20;99.90
20246;DHT22;10281;54.406;18.556;2022-10-18T15:45:30;14.20;99.90
20246;DHT22;10281;54.406;18.556;2022-10-18T15:47:59;14.10;99.90
20246;DHT22;10281;54.406;18.556;2022-10-18T15:50:40;14.10;99.90
20246;DHT22;10281;54.406;18.556;2022-10-18T15:53:52;14.10;99.90
20246;DHT22;10281;54.406;18.556;2022-10-18T15:56:05;14.10;99.90
20246;DHT22;10281;54.406;18.556;2022-10-18T15:58:41;14.00;99.90
20246;DHT22;10281;54.406;18.556;2022-10-18T16:01:15;14.00;99.90
20246;DHT22;10281;54.406;18.556;2022-10-18T16:03:44;14.00;99.90
20246;DHT22;10281;54.406;18.556;2022-10-18T16:06:12;13.90;99.90
20246;DHT22;10281;54.406;18.556;2022-10-18T16:08:41;13.90;99.90
20246;DHT22;10281;54.406;18.556;2022-10-18T16:11:19;13.90;99.90
20246;DHT22;10281;54.406;18.556;2022-10-18T16:13:46;13.90;99.90
20246;DHT22;10281;54.406;18.556;2022-10-18T16:16:17;13.90;99.90
20246;DHT22;10281;54.406;18.556;2022-10-18T16:18:44;13.90;99.90
20246;DHT22;10281;54.406;18.556;2022-10-18T16:21:16;13.80;99.90
20246;DHT22;10281;54.406;18.556;2022-10-18T16:23:43;13.80;99.90